Pampa, TX

9:34 PM CDT en Julio 23, 2014 (GMT -0500)
WT_Meso Pampa 2E (MPAMT2) Alt 3215 ft | 35.54 °N, 100.93 °W | Change Station

Current weather conditions updated 39 minutes ago

Despejado
Despejado
81 ° F
Sensación térmica 83 ° F
N
7
Viento Variable Viento desde SSE
Gusts 7.0 mph

Mañana se prevé un día Más cálido que hoy.

Hoy
Alta -- | Baja -- ° F
--% Posibilidad de precipitaciones
Ayer
Alta -- | Baja -- ° F
Precip. -- pul
6:45 AM 8:54 PM
Creciente menguante, 7% visible
Presión 30.18 pul
Visibilidad 10.0 Millas
Nubes Despejado
Índice de calor 83 ° F
Punto de rocío 63 ° F
Humedad 56%
Precipitaciones -999.00 pul
Espesor de la nieve No disponible.
UV 0 de una escala de 12
Polen 4.60 de una escala de 12
Calidad del aire No disponible.
Flu Activity No disponible.
METAR KPPA 240215Z AUTO 15007KT 10SM CLR 28/14 A3018 RMK AO2 T02760142

More Conditions Fewer Conditions

Presión 30.18 pul
Visibilidad 10.0 Millas
Nubes Despejado
Índice de calor 83 ° F
Punto de rocío 63 ° F
Humedad 56%
Precipitaciones -999.00 pul
Espesor de la nieve No disponible.
UV 0 de una escala de 12
Polen 4.60 de una escala de 12
Calidad del aire No disponible.
Flu Activity No disponible.
METAR KPPA 240215Z AUTO 15007KT 10SM CLR 28/14 A3018 RMK AO2 T02760142

More Conditions Fewer Conditions

10-Day Weather Forecast

Almanac

Astronomía

Jul. 23, 2014 Salida Puesta
Hora real 6:45 AM CDT 8:54 PM CDT
Crepúsculo civil 6:16 AM CDT 9:23 PM CDT
Crepúsculo náutico 5:41 AM CDT 9:58 PM CDT
Crepúsculo astronómico 5:03 AM CDT 10:36 PM CDT
Luna 4:05 AM CDT (7/23) 6:25 PM CDT (7/23)
Horas de luz 15h 06m
Horas de luz
14h 09m
Tomorrow will be 1m 26s shorter.
Creciente menguante, 7% of the Moon is Illuminated
Hoy
Creciente menguante
Jul 26
Nueva
Ago 3
Cuarto creciente
Ago 10
Luna llena
Ago 17
Cuarto menguante

Extremos de hoy

Máximos del estado Bajos del estado

Community

WunderPhotos

Upload Photos

1,736,863 ¡fotos cargadas!

Nearby

Grosos de nieve

Estación Profundido Altura
No tenemos constancia de nieve nueva.

Actividad de terremotos

Ciudad Distance Mag. Tiempo y dato
No hay informes recientes de la actividad sísmica.
Magnitud mínima muestra es 2,5.

Temperaturas de aguas costeras

Lugar Temperatura
Sin partes meteorológicos de las estaciones

Estaciones meteorológicas cercanas

Ubicación de la estación Temp. Índice de calor Punto de rocío Humedad Viento Precip. Alt Actualizado Tipo
WT_Meso Pampa 2E, Pampa, TX 81 ° F 83 ° F 63 ° F 56% SSE  a  7 mph 0.00 pul / hr 3215 ft 8:55 PM CDT MADIS
HADS LEFORS WEATHER STATION TX, Lefors, TX 85 ° F 87 ° F 66 ° F 53% Sur  a  1 mph 0.00 pul / hr 2798 ft 9:00 PM CDT MADIS

Show More Stations Show Fewer Stations